sensor_id;sensor_type;location;lat;lon;timestamp;pressure;altitude;pressure_sealevel;temperature;humidity
32733;BME280;11867;51.198;11.966;2022-12-18T00:00:15;102043.41;;;-8.85;75.60
32733;BME280;11867;51.198;11.966;2022-12-18T00:01:19;102046.41;;;-8.89;75.27
32733;BME280;11867;51.198;11.966;2022-12-18T00:02:21;102050.38;;;-9.08;75.39
32733;BME280;11867;51.198;11.966;2022-12-18T00:03:25;102049.38;;;-8.94;75.37
32733;BME280;11867;51.198;11.966;2022-12-18T00:04:32;102050.50;;;-8.85;75.91
32733;BME280;11867;51.198;11.966;2022-12-18T00:05:36;102046.09;;;-9.22;75.58
32733;BME280;11867;51.198;11.966;2022-12-18T00:06:39;102046.31;;;-9.25;75.44
32733;BME280;11867;51.198;11.966;2022-12-18T00:07:45;102045.13;;;-9.83;76.20
32733;BME280;11867;51.198;11.966;2022-12-18T00:08:47;102049.13;;;-10.03;77.63
32733;BME280;11867;51.198;11.966;2022-12-18T00:09:50;102042.25;;;-9.67;78.89
32733;BME280;11867;51.198;11.966;2022-12-18T00:10:52;102043.28;;;-9.57;78.39
32733;BME280;11867;51.198;11.966;2022-12-18T00:12:00;102038.28;;;-9.23;77.55
32733;BME280;11867;51.198;11.966;2022-12-18T00:13:16;102032.25;;;-9.25;76.79
32733;BME280;11867;51.198;11.966;2022-12-18T00:14:19;102032.66;;;-9.68;76.89
32733;BME280;11867;51.198;11.966;2022-12-18T00:15:20;102025.00;;;-9.47;76.97
32733;BME280;11867;51.198;11.966;2022-12-18T00:16:27;102028.16;;;-9.29;77.03
32733;BME280;11867;51.198;11.966;2022-12-18T00:17:31;102027.81;;;-9.25;76.50
32733;BME280;11867;51.198;11.966;2022-12-18T00:18:34;102028.63;;;-9.48;76.29
32733;BME280;11867;51.198;11.966;2022-12-18T00:19:36;102026.22;;;-10.03;76.94
32733;BME280;11867;51.198;11.966;2022-12-18T00:20:42;102029.59;;;-10.39;78.72
32733;BME280;11867;51.198;11.966;2022-12-18T00:21:45;102038.72;;;-10.58;79.78
32733;BME280;11867;51.198;11.966;2022-12-18T00:22:48;102034.44;;;-10.20;80.98
32733;BME280;11867;51.198;11.966;2022-12-18T00:23:53;102031.38;;;-9.88;80.70
32733;BME280;11867;51.198;11.966;2022-12-18T00:24:56;102039.78;;;-9.45;80.07
32733;BME280;11867;51.198;11.966;2022-12-18T00:25:58;102035.94;;;-9.15;78.24
32733;BME280;11867;51.198;11.966;2022-12-18T00:27:03;102039.31;;;-9.13;77.36
32733;BME280;11867;51.198;11.966;2022-12-18T00:28:05;102035.44;;;-8.96;76.86
32733;BME280;11867;51.198;11.966;2022-12-18T00:29:13;102030.19;;;-8.85;76.58
32733;BME280;11867;51.198;11.966;2022-12-18T00:30:15;102032.91;;;-8.74;75.88
32733;BME280;11867;51.198;11.966;2022-12-18T00:31:19;102040.41;;;-8.67;75.41
32733;BME280;11867;51.198;11.966;2022-12-18T00:32:22;102035.19;;;-8.80;74.99
32733;BME280;11867;51.198;11.966;2022-12-18T00:33:24;102039.66;;;-8.94;74.69
32733;BME280;11867;51.198;11.966;2022-12-18T00:34:29;102037.44;;;-9.24;75.03
32733;BME280;11867;51.198;11.966;2022-12-18T00:35:32;102036.75;;;-9.51;75.16
32733;BME280;11867;51.198;11.966;2022-12-18T00:36:37;102036.56;;;-10.12;77.22
32733;BME280;11867;51.198;11.966;2022-12-18T00:37:56;102049.13;;;-10.16;78.33
32733;BME280;11867;51.198;11.966;2022-12-18T00:38:59;102040.75;;;-10.36;79.04
32733;BME280;11867;51.198;11.966;2022-12-18T00:40:06;102032.56;;;-10.31;79.42
32733;BME280;11867;51.198;11.966;2022-12-18T00:41:09;102038.22;;;-10.24;79.83
32733;BME280;11867;51.198;11.966;2022-12-18T00:42:14;102029.06;;;-10.06;79.83
32733;BME280;11867;51.198;11.966;2022-12-18T00:43:34;102038.06;;;-9.96;79.32
32733;BME280;11867;51.198;11.966;2022-12-18T00:44:37;102044.03;;;-10.45;78.74
32733;BME280;11867;51.198;11.966;2022-12-18T00:45:41;102044.66;;;-10.28;79.24
32733;BME280;11867;51.198;11.966;2022-12-18T00:46:50;102042.97;;;-10.42;79.54
32733;BME280;11867;51.198;11.966;2022-12-18T00:47:56;102037.22;;;-9.96;79.76
32733;BME280;11867;51.198;11.966;2022-12-18T00:49:02;102039.63;;;-9.55;79.11
32733;BME280;11867;51.198;11.966;2022-12-18T00:50:07;102043.06;;;-9.41;77.73
32733;BME280;11867;51.198;11.966;2022-12-18T00:51:10;102042.44;;;-9.32;77.44
32733;BME280;11867;51.198;11.966;2022-12-18T00:52:14;102039.91;;;-9.09;76.40
32733;BME280;11867;51.198;11.966;2022-12-18T00:53:19;102041.44;;;-9.18;75.72
32733;BME280;11867;51.198;11.966;2022-12-18T00:54:21;102039.69;;;-9.43;75.38
32733;BME280;11867;51.198;11.966;2022-12-18T00:55:23;102050.38;;;-9.58;76.34
32733;BME280;11867;51.198;11.966;2022-12-18T00:56:25;102046.38;;;-9.76;76.97
32733;BME280;11867;51.198;11.966;2022-12-18T00:57:30;102049.34;;;-9.68;77.19
32733;BME280;11867;51.198;11.966;2022-12-18T00:58:32;102040.53;;;-9.43;77.08
32733;BME280;11867;51.198;11.966;2022-12-18T00:59:35;102035.09;;;-9.28;76.20
32733;BME280;11867;51.198;11.966;2022-12-18T01:00:39;102052.72;;;-9.16;76.29
32733;BME280;11867;51.198;11.966;2022-12-18T01:01:42;102043.97;;;-9.17;75.73
32733;BME280;11867;51.198;11.966;2022-12-18T01:02:44;102047.16;;;-9.24;75.05
32733;BME280;11867;51.198;11.966;2022-12-18T01:03:47;102047.19;;;-9.37;75.16
32733;BME280;11867;51.198;11.966;2022-12-18T01:04:49;102038.41;;;-9.38;75.40
32733;BME280;11867;51.198;11.966;2022-12-18T01:05:51;102049.28;;;-9.29;75.18
32733;BME280;11867;51.198;11.966;2022-12-18T01:06:54;102048.28;;;-9.16;75.25
32733;BME280;11867;51.198;11.966;2022-12-18T01:07:56;102045.63;;;-9.03;75.01
32733;BME280;11867;51.198;11.966;2022-12-18T01:09:03;102045.97;;;-9.83;74.72
32733;BME280;11867;51.198;11.966;2022-12-18T01:10:06;102048.25;;;-10.29;76.24
32733;BME280;11867;51.198;11.966;2022-12-18T01:11:11;102056.28;;;-9.92;77.27
32733;BME280;11867;51.198;11.966;2022-12-18T01:12:13;102057.25;;;-9.68;76.92
32733;BME280;11867;51.198;11.966;2022-12-18T01:13:18;102056.00;;;-9.88;77.04
32733;BME280;11867;51.198;11.966;2022-12-18T01:14:20;102062.00;;;-9.73;76.88
32733;BME280;11867;51.198;11.966;2022-12-18T01:15:23;102063.69;;;-9.59;76.45
32733;BME280;11867;51.198;11.966;2022-12-18T01:16:24;102063.56;;;-9.45;76.38
32733;BME280;11867;51.198;11.966;2022-12-18T01:17:27;102070.53;;;-9.31;75.83
32733;BME280;11867;51.198;11.966;2022-12-18T01:18:33;102068.50;;;-9.27;75.43
32733;BME280;11867;51.198;11.966;2022-12-18T01:19:36;102073.78;;;-9.27;75.07
32733;BME280;11867;51.198;11.966;2022-12-18T01:20:37;102076.47;;;-9.91;75.05
32733;BME280;11867;51.198;11.966;2022-12-18T01:21:40;102074.41;;;-10.52;76.47
32733;BME280;11867;51.198;11.966;2022-12-18T01:22:42;102075.78;;;-10.73;78.95
32733;BME280;11867;51.198;11.966;2022-12-18T01:23:51;102081.69;;;-10.70;79.09
32733;BME280;11867;51.198;11.966;2022-12-18T01:24:54;102085.84;;;-11.07;80.00
32733;BME280;11867;51.198;11.966;2022-12-18T01:26:04;102082.06;;;-10.62;80.57
32733;BME280;11867;51.198;11.966;2022-12-18T01:27:07;102084.06;;;-10.52;80.40
32733;BME280;11867;51.198;11.966;2022-12-18T01:28:10;102085.91;;;-10.94;80.48
32733;BME280;11867;51.198;11.966;2022-12-18T01:29:12;102084.94;;;-10.93;80.75
32733;BME280;11867;51.198;11.966;2022-12-18T01:30:15;102091.84;;;-10.91;81.22
32733;BME280;11867;51.198;11.966;2022-12-18T01:31:18;102093.34;;;-10.87;80.87
32733;BME280;11867;51.198;11.966;2022-12-18T01:32:22;102084.72;;;-11.03;81.13
32733;BME280;11867;51.198;11.966;2022-12-18T01:33:23;102092.69;;;-10.90;81.46
32733;BME280;11867;51.198;11.966;2022-12-18T01:34:26;102092.56;;;-11.16;81.44
32733;BME280;11867;51.198;11.966;2022-12-18T01:35:28;102093.53;;;-11.04;81.19
32733;BME280;11867;51.198;11.966;2022-12-18T01:36:32;102094.50;;;-11.05;81.31
32733;BME280;11867;51.198;11.966;2022-12-18T01:37:34;102090.84;;;-10.76;81.50
32733;BME280;11867;51.198;11.966;2022-12-18T01:38:37;102089.03;;;-11.17;81.15
32733;BME280;11867;51.198;11.966;2022-12-18T01:39:42;102091.06;;;-10.79;81.17
32733;BME280;11867;51.198;11.966;2022-12-18T01:40:46;102096.13;;;-10.36;80.69
32733;BME280;11867;51.198;11.966;2022-12-18T01:41:47;102093.53;;;-10.10;79.97
32733;BME280;11867;51.198;11.966;2022-12-18T01:43:08;102091.25;;;-9.76;78.38
32733;BME280;11867;51.198;11.966;2022-12-18T01:45:47;102095.38;;;-9.34;76.46
32733;BME280;11867;51.198;11.966;2022-12-18T01:46:49;102095.44;;;-9.22;75.49
32733;BME280;11867;51.198;11.966;2022-12-18T01:47:53;102090.38;;;-9.25;75.48
32733;BME280;11867;51.198;11.966;2022-12-18T01:48:59;102090.28;;;-9.37;74.77
32733;BME280;11867;51.198;11.966;2022-12-18T01:50:05;102092.22;;;-9.77;75.05
32733;BME280;11867;51.198;11.966;2022-12-18T01:51:10;102084.72;;;-9.83;75.65
32733;BME280;11867;51.198;11.966;2022-12-18T01:52:15;102081.84;;;-10.06;75.68
32733;BME280;11867;51.198;11.966;2022-12-18T01:53:21;102082.66;;;-10.18;76.16
32733;BME280;11867;51.198;11.966;2022-12-18T01:54:28;102090.03;;;-10.23;76.65
32733;BME280;11867;51.198;11.966;2022-12-18T01:55:34;102094.28;;;-10.21;76.52
32733;BME280;11867;51.198;11.966;2022-12-18T01:56:39;102094.72;;;-9.88;76.46
32733;BME280;11867;51.198;11.966;2022-12-18T01:57:41;102097.50;;;-9.77;76.06
32733;BME280;11867;51.198;11.966;2022-12-18T01:58:50;102098.22;;;-9.49;75.64
32733;BME280;11867;51.198;11.966;2022-12-18T01:59:59;102090.72;;;-9.30;75.33
32733;BME280;11867;51.198;11.966;2022-12-18T02:01:04;102100.13;;;-9.26;74.26
32733;BME280;11867;51.198;11.966;2022-12-18T02:02:07;102089.94;;;-9.19;74.49
32733;BME280;11867;51.198;11.966;2022-12-18T02:03:10;102099.72;;;-9.58;73.84
32733;BME280;11867;51.198;11.966;2022-12-18T02:04:20;102099.47;;;-9.93;74.26
32733;BME280;11867;51.198;11.966;2022-12-18T02:05:31;102094.53;;;-10.78;76.26
32733;BME280;11867;51.198;11.966;2022-12-18T02:06:40;102095.19;;;-11.16;78.08
32733;BME280;11867;51.198;11.966;2022-12-18T02:07:54;102099.06;;;-11.50;79.93
32733;BME280;11867;51.198;11.966;2022-12-18T02:09:06;102099.22;;;-11.68;82.22
32733;BME280;11867;51.198;11.966;2022-12-18T02:10:15;102088.69;;;-11.53;82.62
32733;BME280;11867;51.198;11.966;2022-12-18T02:11:31;102091.13;;;-11.22;82.93
32733;BME280;11867;51.198;11.966;2022-12-18T02:12:43;102090.13;;;-10.92;81.96
32733;BME280;11867;51.198;11.966;2022-12-18T02:13:51;102084.31;;;-10.43;81.60
32733;BME280;11867;51.198;11.966;2022-12-18T02:15:01;102096.78;;;-10.32;79.89
32733;BME280;11867;51.198;11.966;2022-12-18T02:16:12;102092.34;;;-10.31;78.70
32733;BME280;11867;51.198;11.966;2022-12-18T02:17:19;102090.66;;;-10.20;78.08
32733;BME280;11867;51.198;11.966;2022-12-18T02:18:25;102092.72;;;-10.10;78.37
32733;BME280;11867;51.198;11.966;2022-12-18T02:19:45;102085.31;;;-10.18;77.29
32733;BME280;11867;51.198;11.966;2022-12-18T02:20:53;102083.13;;;-9.86;77.60
32733;BME280;11867;51.198;11.966;2022-12-18T02:22:07;102086.28;;;-10.06;76.65
32733;BME280;11867;51.198;11.966;2022-12-18T02:23:22;102087.69;;;-10.28;76.39
32733;BME280;11867;51.198;11.966;2022-12-18T02:24:35;102086.91;;;-10.03;76.65
32733;BME280;11867;51.198;11.966;2022-12-18T02:26:00;102090.09;;;-9.98;76.82
32733;BME280;11867;51.198;11.966;2022-12-18T02:27:09;102083.34;;;-9.89;76.27
32733;BME280;11867;51.198;11.966;2022-12-18T02:28:13;102087.53;;;-9.74;76.15
32733;BME280;11867;51.198;11.966;2022-12-18T02:29:22;102088.84;;;-9.66;75.92
32733;BME280;11867;51.198;11.966;2022-12-18T02:30:26;102087.03;;;-9.79;75.65
32733;BME280;11867;51.198;11.966;2022-12-18T02:31:34;102081.59;;;-10.28;75.64
32733;BME280;11867;51.198;11.966;2022-12-18T02:32:40;102093.91;;;-10.69;75.90
32733;BME280;11867;51.198;11.966;2022-12-18T02:33:44;102093.47;;;-10.76;77.44
32733;BME280;11867;51.198;11.966;2022-12-18T02:34:48;102089.78;;;-11.00;78.35
32733;BME280;11867;51.198;11.966;2022-12-18T02:35:52;102093.69;;;-11.49;79.91
32733;BME280;11867;51.198;11.966;2022-12-18T02:36:57;102093.19;;;-11.55;80.90
32733;BME280;11867;51.198;11.966;2022-12-18T02:38:01;102094.81;;;-11.96;81.52
32733;BME280;11867;51.198;11.966;2022-12-18T02:39:05;102098.00;;;-11.91;82.37
32733;BME280;11867;51.198;11.966;2022-12-18T02:40:11;102095.09;;;-11.86;82.97
32733;BME280;11867;51.198;11.966;2022-12-18T02:41:16;102091.44;;;-11.98;83.38
32733;BME280;11867;51.198;11.966;2022-12-18T02:42:19;102092.81;;;-12.07;83.95
32733;BME280;11867;51.198;11.966;2022-12-18T02:43:23;102095.72;;;-11.83;83.97
32733;BME280;11867;51.198;11.966;2022-12-18T02:44:26;102091.59;;;-12.01;83.83
32733;BME280;11867;51.198;11.966;2022-12-18T02:45:28;102101.38;;;-11.89;84.00
32733;BME280;11867;51.198;11.966;2022-12-18T02:46:34;102094.59;;;-11.79;83.62
32733;BME280;11867;51.198;11.966;2022-12-18T02:47:40;102096.47;;;-11.81;84.33
32733;BME280;11867;51.198;11.966;2022-12-18T02:48:45;102100.44;;;-11.73;84.09
32733;BME280;11867;51.198;11.966;2022-12-18T02:49:55;102101.47;;;-11.62;83.67
32733;BME280;11867;51.198;11.966;2022-12-18T02:51:03;102100.25;;;-11.13;83.32
32733;BME280;11867;51.198;11.966;2022-12-18T02:52:17;102096.19;;;-11.04;81.43
32733;BME280;11867;51.198;11.966;2022-12-18T02:53:24;102103.13;;;-10.89;80.74
32733;BME280;11867;51.198;11.966;2022-12-18T02:54:38;102093.16;;;-10.98;80.25
32733;BME280;11867;51.198;11.966;2022-12-18T02:55:53;102096.38;;;-11.07;79.85
32733;BME280;11867;51.198;11.966;2022-12-18T02:57:07;102093.22;;;-10.85;79.81
32733;BME280;11867;51.198;11.966;2022-12-18T02:58:14;102101.66;;;-11.22;79.67
32733;BME280;11867;51.198;11.966;2022-12-18T02:59:20;102095.38;;;-11.19;79.26
32733;BME280;11867;51.198;11.966;2022-12-18T03:00:29;102096.78;;;-11.42;79.68
32733;BME280;11867;51.198;11.966;2022-12-18T03:01:38;102096.03;;;-11.59;80.63
32733;BME280;11867;51.198;11.966;2022-12-18T03:02:50;102102.44;;;-11.63;81.21
32733;BME280;11867;51.198;11.966;2022-12-18T03:03:57;102098.75;;;-11.46;81.35
32733;BME280;11867;51.198;11.966;2022-12-18T03:05:07;102104.09;;;-11.62;81.43
32733;BME280;11867;51.198;11.966;2022-12-18T03:06:16;102113.22;;;-11.82;82.07
32733;BME280;11867;51.198;11.966;2022-12-18T03:07:33;102107.59;;;-11.90;82.44
32733;BME280;11867;51.198;11.966;2022-12-18T03:08:38;102117.25;;;-11.76;82.20
32733;BME280;11867;51.198;11.966;2022-12-18T03:09:43;102106.94;;;-11.36;82.51
32733;BME280;11867;51.198;11.966;2022-12-18T03:10:51;102110.06;;;-10.88;81.99
32733;BME280;11867;51.198;11.966;2022-12-18T03:12:01;102103.78;;;-10.58;80.47
32733;BME280;11867;51.198;11.966;2022-12-18T03:13:30;102090.47;;;-10.29;78.89
32733;BME280;11867;51.198;11.966;2022-12-18T03:14:36;102090.34;;;-10.28;78.27
32733;BME280;11867;51.198;11.966;2022-12-18T03:15:42;102091.09;;;-10.26;78.22
32733;BME280;11867;51.198;11.966;2022-12-18T03:16:49;102095.41;;;-10.25;77.61
32733;BME280;11867;51.198;11.966;2022-12-18T03:17:56;102094.06;;;-10.30;77.12
32733;BME280;11867;51.198;11.966;2022-12-18T03:19:03;102101.50;;;-10.50;77.06
32733;BME280;11867;51.198;11.966;2022-12-18T03:20:11;102098.69;;;-10.88;76.71
32733;BME280;11867;51.198;11.966;2022-12-18T03:21:16;102111.63;;;-11.27;78.21
32733;BME280;11867;51.198;11.966;2022-12-18T03:22:20;102108.25;;;-11.43;79.54
32733;BME280;11867;51.198;11.966;2022-12-18T03:23:27;102118.69;;;-11.27;80.09
32733;BME280;11867;51.198;11.966;2022-12-18T03:24:31;102118.25;;;-10.78;79.37
32733;BME280;11867;51.198;11.966;2022-12-18T03:25:38;102108.34;;;-10.47;78.89
32733;BME280;11867;51.198;11.966;2022-12-18T03:26:50;102107.66;;;-10.24;77.97
32733;BME280;11867;51.198;11.966;2022-12-18T03:27:58;102107.75;;;-10.25;78.05
32733;BME280;11867;51.198;11.966;2022-12-18T03:29:05;102114.91;;;-10.67;77.13
32733;BME280;11867;51.198;11.966;2022-12-18T03:30:12;102116.19;;;-11.02;78.25
32733;BME280;11867;51.198;11.966;2022-12-18T03:31:15;102120.28;;;-11.39;79.41
32733;BME280;11867;51.198;11.966;2022-12-18T03:32:23;102106.72;;;-11.19;79.98
32733;BME280;11867;51.198;11.966;2022-12-18T03:33:27;102103.09;;;-11.45;80.05
32733;BME280;11867;51.198;11.966;2022-12-18T03:34:36;102113.34;;;-11.54;80.72
32733;BME280;11867;51.198;11.966;2022-12-18T03:35:41;102109.66;;;-11.52;81.21
32733;BME280;11867;51.198;11.966;2022-12-18T03:36:45;102100.84;;;-11.65;81.15
32733;BME280;11867;51.198;11.966;2022-12-18T03:37:46;102103.81;;;-11.14;81.24
32733;BME280;11867;51.198;11.966;2022-12-18T03:38:49;102107.88;;;-10.81;80.44
32733;BME280;11867;51.198;11.966;2022-12-18T03:39:52;102106.91;;;-10.66;79.47
32733;BME280;11867;51.198;11.966;2022-12-18T03:40:59;102107.28;;;-10.99;78.17
32733;BME280;11867;51.198;11.966;2022-12-18T03:42:08;102103.72;;;-10.71;78.22
32733;BME280;11867;51.198;11.966;2022-12-18T03:43:19;102107.66;;;-10.37;78.35
32733;BME280;11867;51.198;11.966;2022-12-18T03:44:27;102111.78;;;-10.20;77.56
32733;BME280;11867;51.198;11.966;2022-12-18T03:45:34;102101.78;;;-10.02;76.36
32733;BME280;11867;51.198;11.966;2022-12-18T03:46:43;102102.31;;;-9.97;75.63
32733;BME280;11867;51.198;11.966;2022-12-18T03:47:57;102102.06;;;-10.32;75.14
32733;BME280;11867;51.198;11.966;2022-12-18T03:49:09;102106.28;;;-10.29;75.16
32733;BME280;11867;51.198;11.966;2022-12-18T03:50:16;102102.91;;;-10.31;75.94
32733;BME280;11867;51.198;11.966;2022-12-18T03:51:24;102112.63;;;-10.32;75.88
32733;BME280;11867;51.198;11.966;2022-12-18T03:52:36;102114.75;;;-10.11;76.00
32733;BME280;11867;51.198;11.966;2022-12-18T03:53:43;102116.88;;;-10.04;75.65
32733;BME280;11867;51.198;11.966;2022-12-18T03:54:47;102115.66;;;-10.65;74.70
32733;BME280;11867;51.198;11.966;2022-12-18T03:55:51;102116.25;;;-11.45;76.68
32733;BME280;11867;51.198;11.966;2022-12-18T03:56:57;102117.38;;;-11.49;77.86
32733;BME280;11867;51.198;11.966;2022-12-18T03:58:04;102119.88;;;-11.04;79.26
32733;BME280;11867;51.198;11.966;2022-12-18T03:59:10;102119.44;;;-10.69;78.18
32733;BME280;11867;51.198;11.966;2022-12-18T04:00:16;102109.63;;;-10.40;78.18
32733;BME280;11867;51.198;11.966;2022-12-18T04:01:22;102110.06;;;-10.33;76.92
32733;BME280;11867;51.198;11.966;2022-12-18T04:02:26;102123.00;;;-11.12;76.96
32733;BME280;11867;51.198;11.966;2022-12-18T04:03:31;102128.75;;;-11.63;77.83
32733;BME280;11867;51.198;11.966;2022-12-18T04:04:38;102120.09;;;-11.50;78.99
32733;BME280;11867;51.198;11.966;2022-12-18T04:05:42;102125.00;;;-11.59;79.38
32733;BME280;11867;51.198;11.966;2022-12-18T04:06:46;102122.53;;;-11.33;79.69
32733;BME280;11867;51.198;11.966;2022-12-18T04:07:49;102133.28;;;-11.22;79.08
32733;BME280;11867;51.198;11.966;2022-12-18T04:08:53;102122.69;;;-10.79;78.77
32733;BME280;11867;51.198;11.966;2022-12-18T04:09:59;102126.41;;;-10.68;78.28
32733;BME280;11867;51.198;11.966;2022-12-18T04:11:04;102121.19;;;-10.56;77.49
32733;BME280;11867;51.198;11.966;2022-12-18T04:12:07;102117.00;;;-10.45;77.10
32733;BME280;11867;51.198;11.966;2022-12-18T04:13:10;102121.94;;;-10.53;76.06
32733;BME280;11867;51.198;11.966;2022-12-18T04:14:14;102114.91;;;-10.40;76.44
32733;BME280;11867;51.198;11.966;2022-12-18T04:15:19;102121.97;;;-10.68;75.27
32733;BME280;11867;51.198;11.966;2022-12-18T04:16:20;102126.47;;;-11.83;77.07
32733;BME280;11867;51.198;11.966;2022-12-18T04:17:23;102118.34;;;-12.39;79.26
32733;BME280;11867;51.198;11.966;2022-12-18T04:18:25;102112.00;;;-12.51;81.34
32733;BME280;11867;51.198;11.966;2022-12-18T04:19:30;102118.16;;;-12.36;82.25
32733;BME280;11867;51.198;11.966;2022-12-18T04:20:33;102120.81;;;-12.06;82.32
32733;BME280;11867;51.198;11.966;2022-12-18T04:21:35;102115.72;;;-12.09;82.45
32733;BME280;11867;51.198;11.966;2022-12-18T04:22:37;102119.13;;;-12.07;82.12
32733;BME280;11867;51.198;11.966;2022-12-18T04:23:39;102115.56;;;-12.22;81.60
32733;BME280;11867;51.198;11.966;2022-12-18T04:24:42;102119.19;;;-12.39;81.71
32733;BME280;11867;51.198;11.966;2022-12-18T04:25:45;102108.25;;;-12.47;82.60
32733;BME280;11867;51.198;11.966;2022-12-18T04:26:47;102114.69;;;-12.06;83.29
32733;BME280;11867;51.198;11.966;2022-12-18T04:27:49;102113.41;;;-11.56;82.22
32733;BME280;11867;51.198;11.966;2022-12-18T04:28:52;102107.59;;;-11.75;80.92
32733;BME280;11867;51.198;11.966;2022-12-18T04:29:55;102101.47;;;-11.47;81.12
32733;BME280;11867;51.198;11.966;2022-12-18T04:30:57;102107.88;;;-11.51;80.33
32733;BME280;11867;51.198;11.966;2022-12-18T04:31:59;102110.78;;;-11.27;79.82
32733;BME280;11867;51.198;11.966;2022-12-18T04:33:02;102111.91;;;-11.03;79.84
32733;BME280;11867;51.198;11.966;2022-12-18T04:34:06;102104.63;;;-10.85;78.72
32733;BME280;11867;51.198;11.966;2022-12-18T04:35:09;102098.00;;;-10.50;78.27
32733;BME280;11867;51.198;11.966;2022-12-18T04:36:12;102110.50;;;-10.27;77.29
32733;BME280;11867;51.198;11.966;2022-12-18T04:37:15;102102.94;;;-10.19;76.30
32733;BME280;11867;51.198;11.966;2022-12-18T04:38:16;102103.34;;;-10.12;75.48
32733;BME280;11867;51.198;11.966;2022-12-18T04:39:19;102102.53;;;-10.00;74.76
32733;BME280;11867;51.198;11.966;2022-12-18T04:40:21;102106.66;;;-10.08;74.64
32733;BME280;11867;51.198;11.966;2022-12-18T04:41:23;102103.53;;;-10.28;74.48
32733;BME280;11867;51.198;11.966;2022-12-18T04:42:25;102093.72;;;-10.39;74.33
32733;BME280;11867;51.198;11.966;2022-12-18T04:43:27;102094.25;;;-10.33;74.23
32733;BME280;11867;51.198;11.966;2022-12-18T04:44:29;102102.94;;;-10.59;74.67
32733;BME280;11867;51.198;11.966;2022-12-18T04:45:33;102084.59;;;-11.02;74.92
32733;BME280;11867;51.198;11.966;2022-12-18T04:46:35;102087.38;;;-11.46;75.39
32733;BME280;11867;51.198;11.966;2022-12-18T04:47:38;102097.16;;;-11.63;76.85
32733;BME280;11867;51.198;11.966;2022-12-18T04:48:39;102091.16;;;-11.50;76.67
32733;BME280;11867;51.198;11.966;2022-12-18T04:49:42;102094.03;;;-11.84;77.25
32733;BME280;11867;51.198;11.966;2022-12-18T04:50:43;102090.19;;;-12.07;78.51
32733;BME280;11867;51.198;11.966;2022-12-18T04:51:48;102095.66;;;-11.67;78.56
32733;BME280;11867;51.198;11.966;2022-12-18T04:52:50;102092.63;;;-11.18;78.41
32733;BME280;11867;51.198;11.966;2022-12-18T04:53:52;102098.88;;;-10.91;77.08
32733;BME280;11867;51.198;11.966;2022-12-18T04:54:55;102095.53;;;-10.66;77.06
32733;BME280;11867;51.198;11.966;2022-12-18T04:56:04;102099.84;;;-10.65;76.04
32733;BME280;11867;51.198;11.966;2022-12-18T04:57:07;102108.50;;;-10.63;75.76
32733;BME280;11867;51.198;11.966;2022-12-18T04:58:09;102104.56;;;-10.43;74.89
32733;BME280;11867;51.198;11.966;2022-12-18T04:59:22;102110.22;;;-11.18;74.88
32733;BME280;11867;51.198;11.966;2022-12-18T05:00:24;102109.38;;;-11.47;75.79
32733;BME280;11867;51.198;11.966;2022-12-18T05:01:30;102111.25;;;-11.35;76.64
32733;BME280;11867;51.198;11.966;2022-12-18T05:02:35;102114.00;;;-11.22;76.63
32733;BME280;11867;51.198;11.966;2022-12-18T05:03:38;102111.25;;;-11.21;76.49
32733;BME280;11867;51.198;11.966;2022-12-18T05:04:44;102112.00;;;-11.19;76.78
32733;BME280;11867;51.198;11.966;2022-12-18T05:05:49;102109.16;;;-10.87;76.26
32733;BME280;11867;51.198;11.966;2022-12-18T05:06:53;102108.66;;;-10.52;75.23
32733;BME280;11867;51.198;11.966;2022-12-18T05:07:56;102101.81;;;-10.42;75.42
32733;BME280;11867;51.198;11.966;2022-12-18T05:08:58;102113.22;;;-10.28;74.77
32733;BME280;11867;51.198;11.966;2022-12-18T05:10:04;102109.88;;;-10.30;74.16
32733;BME280;11867;51.198;11.966;2022-12-18T05:11:08;102108.41;;;-10.34;73.97
32733;BME280;11867;51.198;11.966;2022-12-18T05:12:11;102108.41;;;-10.34;73.35
32733;BME280;11867;51.198;11.966;2022-12-18T05:13:12;102119.03;;;-10.63;74.07
32733;BME280;11867;51.198;11.966;2022-12-18T05:14:15;102128.94;;;-11.23;74.01
32733;BME280;11867;51.198;11.966;2022-12-18T05:15:17;102123.28;;;-11.02;74.92
32733;BME280;11867;51.198;11.966;2022-12-18T05:16:19;102126.00;;;-11.04;74.65
32733;BME280;11867;51.198;11.966;2022-12-18T05:17:23;102128.34;;;-10.99;74.84
32733;BME280;11867;51.198;11.966;2022-12-18T05:18:28;102122.56;;;-10.77;75.24
32733;BME280;11867;51.198;11.966;2022-12-18T05:19:31;102120.97;;;-10.52;74.96
32733;BME280;11867;51.198;11.966;2022-12-18T05:20:33;102121.44;;;-10.87;74.55
32733;BME280;11867;51.198;11.966;2022-12-18T05:21:37;102130.50;;;-11.78;75.01
32733;BME280;11867;51.198;11.966;2022-12-18T05:22:41;102131.34;;;-11.77;76.32
32733;BME280;11867;51.198;11.966;2022-12-18T05:23:44;102126.59;;;-12.15;78.17
32733;BME280;11867;51.198;11.966;2022-12-18T05:24:45;102122.72;;;-12.24;79.08
32733;BME280;11867;51.198;11.966;2022-12-18T05:25:50;102124.34;;;-12.21;79.41
32733;BME280;11867;51.198;11.966;2022-12-18T05:26:52;102122.00;;;-12.42;79.66
32733;BME280;11867;51.198;11.966;2022-12-18T05:27:55;102116.63;;;-12.40;80.08
32733;BME280;11867;51.198;11.966;2022-12-18T05:28:59;102119.03;;;-12.51;79.63
32733;BME280;11867;51.198;11.966;2022-12-18T05:30:02;102121.13;;;-12.42;80.55
32733;BME280;11867;51.198;11.966;2022-12-18T05:31:04;102136.97;;;-12.28;79.84
32733;BME280;11867;51.198;11.966;2022-12-18T05:32:07;102132.66;;;-11.84;79.85
32733;BME280;11867;51.198;11.966;2022-12-18T05:33:10;102136.72;;;-11.64;79.21
32733;BME280;11867;51.198;11.966;2022-12-18T05:34:13;102129.03;;;-11.53;78.48
32733;BME280;11867;51.198;11.966;2022-12-18T05:35:15;102139.28;;;-11.63;78.32